KCLM

UTC

William R Fairchild International Airport

Port Angeles, Washington, United States

TAF Report

KCLM 082320Z 0900/0924 30012G22KT P6SM SKC FM090500 28010KT P6SM OVC120 FM091000 27008KT P6SM OVC080

Issued

Jun 08 23:20 UTC

Valid From

Jun 09 00:00 UTC

Valid To

Jun 10 00:00 UTC

TAF Sections

  1. Jun 09 00:00 UTC - Jun 09 05:00 UTC

    TAF KCLM 082320Z 0900/0924 30012G22KT P6SM SKC

    Wind

    300° at 12 KTS
    Gusting to 22 KTS

    Visibility

    Greater than 6 SM

    Clouds

    • Clear skies
  2. Jun 09 05:00 UTC - Jun 09 10:00 UTC

    FM090500 28010KT P6SM OVC120

    Wind

    280° at 10 KTS

    Visibility

    Greater than 6 SM

    Clouds

    • Overcast at 12,000 ft AGL

    Ceiling

    Overcast at 12,000 ft AGL

  3. Jun 09 10:00 UTC - Jun 10 00:00 UTC

    FM091000 27008KT P6SM OVC080

    Wind

    270° at 8 KTS

    Visibility

    Greater than 6 SM

    Clouds

    • Overcast at 8,000 ft AGL

    Ceiling

    Overcast at 8,000 ft AGL